Time;durP1;ratioP1;P1;durP2;ratioP2;P2;SDS_P1;SDS_P2;PMS_P1;PMS_P2;Temp;Humidity;BMP_temperature;BMP_pressure;BME280_temperature;BME280_humidity;BME280_pressure;Samples;Min_cycle;Max_cycle;Signal;HPM_P1;HPM_P2
2021/12/27 00:00:22;;;;;;;23.08;8.52;;;;;;;-2.87;75.73;99369.13;5022990;28;20143;-68
2021/12/27 00:02:50;;;;;;;17.45;7.80;;;;;;;-2.87;75.25;99374.25;5022473;28;20045;-72
2021/12/27 00:05:16;;;;;;;14.88;6.97;;;;;;;-2.86;75.54;99370.78;5015170;28;20050;-69
2021/12/27 00:07:43;;;;;;;16.95;7.00;;;;;;;-2.83;75.34;99370.72;5021333;28;20041;-68
2021/12/27 00:10:10;;;;;;;15.65;6.13;;;;;;;-2.75;75.71;99361.09;5021898;28;20030;-71
2021/12/27 00:12:35;;;;;;;15.65;6.82;;;;;;;-2.72;75.42;99364.41;5025103;28;20029;-73
2021/12/27 00:15:00;;;;;;;16.63;6.43;;;;;;;-2.73;75.39;99351.63;5017643;28;20034;-70
2021/12/27 00:17:26;;;;;;;18.70;8.05;;;;;;;-2.73;76.25;99346.50;5024593;28;20061;-68
2021/12/27 00:19:51;;;;;;;17.00;6.93;;;;;;;-2.72;75.67;99335.34;5016045;28;20050;-71
2021/12/27 00:22:16;;;;;;;14.32;6.50;;;;;;;-2.78;76.20;99338.94;5017385;28;20495;-70
2021/12/27 00:24:46;;;;;;;14.73;7.00;;;;;;;-2.70;76.02;99342.13;5017468;28;20498;-67
2021/12/27 00:27:14;;;;;;;15.90;6.22;;;;;;;-2.69;76.17;99343.81;5025699;28;20043;-69
2021/12/27 00:29:39;;;;;;;16.55;6.78;;;;;;;-2.61;76.04;99338.44;5020360;28;20041;-68
2021/12/27 00:32:04;;;;;;;21.35;7.72;;;;;;;-2.60;76.47;99339.28;5024828;28;20096;-70
2021/12/27 00:34:30;;;;;;;17.92;6.32;;;;;;;-2.63;76.42;99339.38;5013561;28;20061;-69
2021/12/27 00:36:55;;;;;;;18.15;6.22;;;;;;;-2.55;76.23;99338.28;5025645;28;20117;-70
2021/12/27 00:39:20;;;;;;;15.27;6.70;;;;;;;-2.54;76.31;99336.56;5023776;28;20188;-71
2021/12/27 00:41:46;;;;;;;14.70;5.97;;;;;;;-2.51;76.38;99332.16;5021874;28;20037;-66
2021/12/27 00:44:11;;;;;;;15.15;6.55;;;;;;;-2.45;76.25;99328.56;5028970;28;20079;-67
2021/12/27 00:46:36;;;;;;;16.98;6.90;;;;;;;-2.41;75.93;99326.75;5024701;28;20037;-71
2021/12/27 00:49:02;;;;;;;15.18;6.55;;;;;;;-2.50;76.27;99327.88;5026750;28;20041;-69
2021/12/27 00:51:27;;;;;;;18.73;6.93;;;;;;;-2.42;76.37;99325.09;5015838;28;20118;-70
2021/12/27 00:53:52;;;;;;;12.60;6.25;;;;;;;-2.32;75.94;99329.06;5022652;28;20034;-70
2021/12/27 00:56:18;;;;;;;14.75;6.13;;;;;;;-2.26;75.84;99327.16;5031407;28;20530;-70
2021/12/27 00:58:43;;;;;;;13.77;5.55;;;;;;;-2.23;75.58;99332.19;5030927;28;20030;-72
2021/12/27 01:01:08;;;;;;;13.50;6.00;;;;;;;-2.21;75.69;99335.56;5029320;28;20045;-70
2021/12/27 01:03:34;;;;;;;14.23;5.88;;;;;;;-2.11;75.81;99343.81;5030120;28;20128;-72
2021/12/27 01:05:59;;;;;;;14.82;5.80;;;;;;;-2.15;75.73;99337.09;5031551;28;20029;-70
2021/12/27 01:08:24;;;;;;;20.48;6.40;;;;;;;-2.07;75.57;99331.72;5032005;28;20072;-72
2021/12/27 01:11:10;;;;;;;14.18;5.20;;;;;;;-2.02;75.50;99317.00;5030070;28;20034;-70
2021/12/27 01:13:42;;;;;;;13.70;5.80;;;;;;;-1.94;75.53;99325.31;5029055;28;20100;-72
2021/12/27 01:18:35;;;;;;;13.60;5.45;;;;;;;-2.09;75.94;99313.78;5026497;28;20073;-68
2021/12/27 01:21:03;;;;;;;12.77;5.47;;;;;;;-2.13;76.32;99309.63;5030075;28;20506;-71
2021/12/27 01:23:28;;;;;;;13.68;5.70;;;;;;;-2.10;76.89;99313.84;5023420;28;20033;-72
2021/12/27 01:25:54;;;;;;;13.45;5.95;;;;;;;-2.01;76.37;99314.38;5017945;28;20144;-69
2021/12/27 01:28:20;;;;;;;14.25;5.40;;;;;;;-1.95;76.68;99321.91;5020372;28;20038;-69
2021/12/27 01:30:50;;;;;;;12.07;5.68;;;;;;;-1.86;76.38;99322.50;5016121;28;20030;-75
2021/12/27 01:33:18;;;;;;;11.90;5.30;;;;;;;-1.84;76.45;99321.56;5023476;28;20395;-75
2021/12/27 01:35:45;;;;;;;13.38;5.60;;;;;;;-1.83;76.71;99318.09;5060263;22;20103;-68
2021/12/27 01:38:12;;;;;;;12.70;6.05;;;;;;;-1.89;76.99;99309.75;5025327;28;20037;-67
2021/12/27 01:40:39;;;;;;;10.90;5.70;;;;;;;-1.91;77.05;99307.22;5024898;28;20094;-68
2021/12/27 01:43:10;;;;;;;11.40;5.35;;;;;;;-1.90;77.44;99306.34;5026169;28;20029;-65
2021/12/27 01:45:39;;;;;;;13.82;6.00;;;;;;;-1.95;78.27;99292.81;5026173;28;20112;-66
2021/12/27 01:48:07;;;;;;;12.68;5.85;;;;;;;-1.98;79.30;99295.47;5029953;28;20036;-69
2021/12/27 01:50:33;;;;;;;13.13;5.57;;;;;;;-2.05;79.89;99289.69;5026771;28;20621;-71
2021/12/27 01:52:59;;;;;;;13.45;5.85;;;;;;;-2.03;80.69;99289.66;5018060;28;20108;-68
2021/12/27 01:55:24;;;;;;;15.77;6.65;;;;;;;-2.03;80.65;99281.94;5027525;28;20165;-68
2021/12/27 01:57:49;;;;;;;13.85;6.15;;;;;;;-1.99;81.24;99283.53;5028061;28;20481;-68
2021/12/27 02:00:15;;;;;;;12.43;6.20;;;;;;;-2.09;81.73;99282.13;5023938;28;20142;-67
2021/12/27 02:02:41;;;;;;;15.45;6.30;;;;;;;-2.10;81.52;99281.31;5022663;28;20045;-68
2021/12/27 02:05:06;;;;;;;13.35;5.65;;;;;;;-2.04;81.94;99283.69;5026491;28;20033;-69
2021/12/27 02:07:32;;;;;;;14.00;6.57;;;;;;;-2.03;82.10;99285.34;5027273;28;20399;-69
2021/12/27 02:10:02;;;;;;;12.95;5.82;;;;;;;-1.98;82.66;99287.78;5032389;28;20026;-69
2021/12/27 02:12:31;;;;;;;11.02;5.95;;;;;;;-1.94;82.25;99294.50;5028470;28;20048;-68
2021/12/27 02:14:57;;;;;;;13.05;5.82;;;;;;;-1.85;82.94;99280.53;5027556;28;20064;-66
2021/12/27 02:17:23;;;;;;;14.52;6.38;;;;;;;-1.86;83.94;99273.69;5025352;28;20041;-73
2021/12/27 02:19:52;;;;;;;15.15;6.47;;;;;;;-1.90;83.85;99274.69;5027310;28;20617;-67
2021/12/27 02:22:18;;;;;;;14.07;6.20;;;;;;;-1.87;84.15;99272.84;5024025;28;20064;-70
2021/12/27 02:24:43;;;;;;;17.42;7.15;;;;;;;-1.92;84.47;99267.03;5027000;28;20095;-70
2021/12/27 02:27:13;;;;;;;14.25;6.20;;;;;;;-1.91;84.50;99270.44;5024907;28;20433;-68
2021/12/27 02:29:39;;;;;;;15.02;7.43;;;;;;;-1.86;84.63;99258.28;5025492;28;20033;-69
2021/12/27 02:32:06;;;;;;;13.57;6.15;;;;;;;-1.93;84.62;99260.19;5019951;28;20395;-69
2021/12/27 02:34:31;;;;;;;19.63;6.97;;;;;;;-1.89;85.10;99251.53;5027404;28;20452;-69
2021/12/27 02:36:57;;;;;;;17.90;7.13;;;;;;;-1.87;85.58;99244.59;5027162;28;20033;-68
2021/12/27 02:39:22;;;;;;;16.13;6.45;;;;;;;-1.82;85.46;99257.28;5026887;28;20103;-68
2021/12/27 02:41:47;;;;;;;14.27;6.47;;;;;;;-1.89;85.57;99246.38;5026133;28;20041;-69
2021/12/27 02:44:13;;;;;;;19.02;7.07;;;;;;;-1.87;85.08;99236.06;5027685;28;20033;-70
2021/12/27 02:46:38;;;;;;;16.85;6.80;;;;;;;-1.86;85.48;99235.16;5022236;28;20085;-72
2021/12/27 02:49:04;;;;;;;17.90;7.18;;;;;;;-1.87;86.22;99239.47;5019702;28;20033;-69
2021/12/27 02:51:31;;;;;;;17.52;7.00;;;;;;;-1.88;85.94;99240.34;5026687;28;20040;-67
2021/12/27 02:53:56;;;;;;;14.73;7.28;;;;;;;-1.89;85.75;99235.25;5021604;28;20384;-65
2021/12/27 02:56:22;;;;;;;13.95;6.60;;;;;;;-1.77;86.07;99240.00;5026130;28;20048;-67
2021/12/27 02:58:49;;;;;;;19.83;7.82;;;;;;;-1.79;86.27;99239.19;5026973;28;20041;-67
2021/12/27 03:01:21;;;;;;;17.75;6.95;;;;;;;-1.76;86.10;99241.66;5017019;28;20103;-69
2021/12/27 03:03:46;;;;;;;18.52;7.03;;;;;;;-1.73;86.41;99231.28;5026186;28;20040;-66
2021/12/27 03:06:12;;;;;;;17.15;7.22;;;;;;;-1.69;86.66;99229.47;5026667;28;20051;-69
2021/12/27 03:08:39;;;;;;;13.65;6.85;;;;;;;-1.69;86.45;99230.28;5026119;28;20034;-66
2021/12/27 03:11:05;;;;;;;17.48;8.07;;;;;;;-1.67;87.26;99232.81;5023985;28;20045;-67
2021/12/27 03:13:33;;;;;;;14.15;7.00;;;;;;;-1.63;87.66;99232.66;5025971;28;20030;-68
2021/12/27 03:16:02;;;;;;;16.92;7.60;;;;;;;-1.60;88.51;99234.28;5024244;28;20482;-68
2021/12/27 03:18:28;;;;;;;17.38;7.35;;;;;;;-1.62;88.04;99233.50;5021870;28;20036;-65
2021/12/27 03:20:54;;;;;;;16.85;7.68;;;;;;;-1.55;88.07;99228.09;5024429;28;20118;-69
2021/12/27 03:23:20;;;;;;;14.55;6.95;;;;;;;-1.46;87.26;99230.34;5025914;28;20030;-72
2021/12/27 03:25:46;;;;;;;20.85;8.05;;;;;;;-1.49;88.29;99220.16;5025718;28;20073;-68
2021/12/27 03:28:12;;;;;;;24.25;9.45;;;;;;;-1.51;88.25;99218.53;5022213;28;20036;-68
2021/12/27 03:30:39;;;;;;;16.33;7.15;;;;;;;-1.46;87.92;99219.22;5010081;28;20040;-66
2021/12/27 03:33:06;;;;;;;20.23;7.90;;;;;;;-1.48;88.44;99213.31;5025484;28;20021;-72
2021/12/27 03:35:40;;;;;;;15.82;8.07;;;;;;;-1.42;88.39;99218.22;5023339;28;20029;-67
2021/12/27 03:38:09;;;;;;;20.98;8.77;;;;;;;-1.43;88.52;99210.56;5019718;28;20456;-68
2021/12/27 03:40:35;;;;;;;;;;;;;;;-1.39;88.67;99207.00;5026446;28;20506;-69
2021/12/27 03:43:00;;;;;;;24.63;9.32;;;;;;;-1.40;88.75;99213.03;5025581;28;19913;-68
2021/12/27 03:45:29;;;;;;;20.20;8.25;;;;;;;-1.48;88.82;99197.88;5024681;28;20021;-69
2021/12/27 03:47:55;;;;;;;16.40;7.47;;;;;;;-1.46;88.89;99193.50;5026225;28;20109;-69
2021/12/27 03:50:21;;;;;;;16.15;7.95;;;;;;;-1.51;88.91;99188.53;5023289;28;20267;-68
2021/12/27 03:52:47;;;;;;;25.35;10.40;;;;;;;-1.48;89.01;99193.56;5022317;28;20498;-67
2021/12/27 03:55:14;;;;;;;26.80;9.77;;;;;;;-1.51;89.38;99196.25;5025511;28;20124;-68
2021/12/27 03:57:42;;;;;;;20.85;9.02;;;;;;;-1.39;89.38;99189.81;5025351;28;20086;-64
2021/12/27 04:02:39;;;;;;;14.98;7.32;;;;;;;-1.30;89.03;99180.94;5023549;28;20044;-66
2021/12/27 04:05:08;;;;;;;14.32;7.68;;;;;;;-1.31;89.10;99184.41;5024966;28;20033;-69
2021/12/27 04:07:34;;;;;;;;;;;;;;;-1.32;88.83;99180.16;5023999;28;20104;-70
2021/12/27 04:10:00;;;;;;;16.60;7.60;;;;;;;-1.24;89.03;99184.13;5025903;28;19913;-69
2021/12/27 04:12:25;;;;;;;16.00;7.53;;;;;;;-1.20;88.64;99189.16;5025497;28;20041;-68
2021/12/27 04:14:50;;;;;;;16.48;6.95;;;;;;;-1.13;88.66;99186.31;5025607;28;20156;-66
2021/12/27 04:17:16;;;;;;;15.15;7.70;;;;;;;-1.08;88.35;99179.25;5025322;28;20129;-68
2021/12/27 04:19:41;;;;;;;18.27;7.80;;;;;;;-1.07;88.19;99177.53;5025237;28;20071;-67
2021/12/27 04:22:06;;;;;;;19.17;7.75;;;;;;;-1.08;88.19;99183.56;5024863;28;20075;-72
2021/12/27 04:24:32;;;;;;;19.65;8.38;;;;;;;-1.06;88.28;99174.06;5026059;28;20289;-68
2021/12/27 04:26:57;;;;;;;15.95;7.80;;;;;;;-1.01;88.01;99167.84;5024975;28;20038;-69
2021/12/27 04:29:22;;;;;;;17.77;8.50;;;;;;;-1.00;88.46;99173.84;5026011;28;20460;-68
2021/12/27 04:31:47;;;;;;;16.65;8.57;;;;;;;-0.99;88.13;99181.47;5028664;28;20090;-70
2021/12/27 04:34:13;;;;;;;15.02;7.88;;;;;;;-0.96;88.30;99172.81;5028248;28;20036;-67
2021/12/27 04:36:38;;;;;;;15.80;8.07;;;;;;;-0.85;87.82;99180.97;5027568;28;20156;-69
2021/12/27 04:39:04;;;;;;;18.15;7.85;;;;;;;-0.77;87.46;99181.50;5026566;28;20021;-70
2021/12/27 04:41:29;;;;;;;17.63;8.07;;;;;;;-0.71;87.67;99174.44;5027615;28;20025;-67
2021/12/27 04:43:55;;;;;;;15.18;7.47;;;;;;;-0.63;87.31;99174.97;5029826;28;20063;-68
2021/12/27 04:46:20;;;;;;;18.88;8.50;;;;;;;-0.66;87.27;99162.25;5029133;28;20398;-68
2021/12/27 04:48:45;;;;;;;18.33;8.43;;;;;;;-0.62;87.06;99161.22;5029697;28;20539;-69
2021/12/27 04:51:11;;;;;;;19.17;8.35;;;;;;;-0.59;86.80;99163.69;5028937;28;20463;-66
2021/12/27 04:53:36;;;;;;;15.45;7.72;;;;;;;-0.53;87.05;99164.25;5027594;28;20033;-71
2021/12/27 04:56:02;;;;;;;22.38;8.27;;;;;;;-0.55;86.86;99160.09;5029252;28;20025;-68
2021/12/27 04:58:27;;;;;;;14.35;7.50;;;;;;;-0.59;86.86;99161.94;5028592;28;20440;-67
2021/12/27 05:00:55;;;;;;;18.75;8.10;;;;;;;-0.53;86.92;99160.84;5026094;28;20037;-70
2021/12/27 05:03:20;;;;;;;17.35;7.65;;;;;;;-0.54;86.81;99161.75;5028296;28;20900;-70
2021/12/27 05:05:47;;;;;;;21.67;9.48;;;;;;;-0.50;86.99;99158.16;5027535;28;20530;-70
2021/12/27 05:08:12;;;;;;;17.88;7.70;;;;;;;-0.48;87.09;99156.38;5027905;28;20025;-69
2021/12/27 05:10:38;;;;;;;18.95;8.55;;;;;;;-0.46;87.14;99151.16;5027878;28;20056;-66
2021/12/27 05:13:04;;;;;;;15.38;8.10;;;;;;;-0.42;87.13;99156.09;5023644;28;20143;-67
2021/12/27 05:15:30;;;;;;;17.58;8.60;;;;;;;-0.38;87.02;99152.50;5024835;28;20025;-67
2021/12/27 05:17:56;;;;;;;16.65;7.53;;;;;;;-0.34;86.77;99142.91;5016650;28;20039;-68
2021/12/27 05:20:22;;;;;;;23.35;8.20;;;;;;;-0.30;87.00;99149.59;5017853;28;20046;-69
2021/12/27 05:22:47;;;;;;;17.98;8.95;;;;;;;-0.29;86.90;99152.13;5017542;28;20060;-65
2021/12/27 05:25:16;;;;;;;18.95;9.30;;;;;;;-0.24;86.49;99157.09;5012422;28;20103;-70
2021/12/27 05:27:41;;;;;;;32.13;8.87;;;;;;;-0.18;86.54;99158.59;5018207;28;20034;-67
2021/12/27 05:30:08;;;;;;;19.83;8.60;;;;;;;-0.12;86.28;99148.00;5020917;28;20270;-69
2021/12/27 05:32:35;;;;;;;17.25;8.65;;;;;;;-0.11;86.19;99149.69;5016297;28;20064;-70
2021/12/27 05:35:01;;;;;;;19.60;9.23;;;;;;;-0.11;85.97;99147.09;5013102;28;20030;-69
2021/12/27 05:37:26;;;;;;;23.67;8.70;;;;;;;-0.08;85.81;99142.66;5021240;28;20056;-71
2021/12/27 05:39:52;;;;;;;20.27;8.95;;;;;;;-0.09;86.30;99130.69;5016857;28;20078;-68
2021/12/27 05:42:17;;;;;;;17.40;9.20;;;;;;;-0.12;86.51;99135.97;5022908;28;20100;-65
2021/12/27 05:44:42;;;;;;;19.55;9.18;;;;;;;-0.12;86.57;99129.97;5018079;28;20053;-68
2021/12/27 05:47:08;;;;;;;19.20;8.73;;;;;;;-0.12;86.56;99132.56;5020538;28;20030;-65
2021/12/27 05:49:33;;;;;;;17.05;8.35;;;;;;;-0.06;86.44;99138.31;5025085;28;20076;-68
2021/12/27 05:51:58;;;;;;;16.65;8.35;;;;;;;-0.06;86.47;99138.31;5027334;28;20502;-68
2021/12/27 05:54:24;;;;;;;17.88;8.27;;;;;;;-0.04;86.49;99141.66;5029139;28;20045;-67
2021/12/27 05:56:49;;;;;;;31.23;10.20;;;;;;;-0.01;86.16;99140.69;5026715;28;20490;-68
2021/12/27 05:59:16;;;;;;;25.92;10.27;;;;;;;0.05;86.59;99131.84;5026140;28;20045;-71
2021/12/27 06:01:42;;;;;;;21.92;9.63;;;;;;;0.04;86.46;99135.31;5026838;28;20445;-68
2021/12/27 06:04:08;;;;;;;19.13;8.63;;;;;;;0.10;86.36;99135.91;5028827;28;20163;-65
2021/12/27 06:06:33;;;;;;;26.58;9.70;;;;;;;0.09;86.08;99135.97;5027318;28;20033;-68
2021/12/27 06:08:59;;;;;;;20.80;9.82;;;;;;;0.05;86.24;99131.84;5028573;28;20014;-67
2021/12/27 06:11:24;;;;;;;17.10;8.80;;;;;;;0.08;86.42;99124.84;5026333;28;20470;-67
2021/12/27 06:13:49;;;;;;;22.42;8.50;;;;;;;0.13;86.61;99129.78;5027947;28;20038;-67
2021/12/27 06:16:15;;;;;;;16.50;8.45;;;;;;;0.15;86.00;99131.41;5025989;28;20546;-69
2021/12/27 06:18:40;;;;;;;17.67;9.60;;;;;;;0.14;85.86;99128.88;5023748;28;20434;-68
2021/12/27 06:21:06;;;;;;;21.88;9.40;;;;;;;0.10;86.31;99125.59;5023929;28;20479;-64
2021/12/27 06:23:32;;;;;;;22.25;9.18;;;;;;;0.13;85.99;99124.63;5025923;28;20617;-68
2021/12/27 06:25:58;;;;;;;19.60;9.40;;;;;;;0.16;86.13;99129.66;5025480;28;20553;-69
2021/12/27 06:28:23;;;;;;;20.95;9.85;;;;;;;0.22;86.25;99129.38;5023443;28;20211;-66
2021/12/27 06:30:49;;;;;;;18.38;9.60;;;;;;;0.29;86.03;99125.63;5025512;28;20608;-66
2021/12/27 06:33:15;;;;;;;23.45;9.82;;;;;;;0.27;85.94;99129.19;5022470;28;20536;-70
2021/12/27 06:35:40;;;;;;;23.40;9.55;;;;;;;0.30;86.08;99129.03;5026551;28;20125;-67
2021/12/27 06:38:05;;;;;;;20.25;9.95;;;;;;;0.31;86.28;99121.25;5019135;28;20034;-64
2021/12/27 06:40:30;;;;;;;24.15;10.13;;;;;;;0.33;85.90;99116.84;5027127;28;20481;-67
2021/12/27 06:42:57;;;;;;;32.95;11.73;;;;;;;0.32;85.72;99115.19;5026462;28;20056;-65
2021/12/27 06:45:22;;;;;;;20.85;10.02;;;;;;;0.32;85.77;99115.19;5027082;28;20101;-67
2021/12/27 06:47:47;;;;;;;21.08;9.80;;;;;;;0.34;85.66;99125.44;5026668;28;20141;-67
2021/12/27 06:50:13;;;;;;;24.17;9.70;;;;;;;0.34;85.70;99115.13;5026590;28;20051;-69
2021/12/27 06:52:39;;;;;;;21.63;9.73;;;;;;;0.36;85.83;99115.88;5019835;28;20100;-69
2021/12/27 06:55:05;;;;;;;23.70;10.20;;;;;;;0.33;85.31;99106.53;5023212;28;20041;-67
2021/12/27 06:57:31;;;;;;;24.08;10.45;;;;;;;0.40;85.53;99109.69;5024182;28;20022;-70
2021/12/27 06:59:57;;;;;;;24.55;9.68;;;;;;;0.39;85.40;99108.03;5026870;28;20034;-68
2021/12/27 07:02:23;;;;;;;22.08;10.07;;;;;;;0.40;85.40;99115.69;5025966;28;20410;-67
2021/12/27 07:04:49;;;;;;;21.83;9.80;;;;;;;0.36;85.64;99115.88;5026702;28;20482;-69
2021/12/27 07:07:14;;;;;;;17.65;9.20;;;;;;;0.40;85.60;99109.69;5025648;28;20029;-70
2021/12/27 07:09:40;;;;;;;22.90;9.80;;;;;;;0.40;85.55;99105.38;5026798;28;20051;-67
2021/12/27 07:12:06;;;;;;;24.23;10.35;;;;;;;0.40;85.70;99114.84;5025362;28;20391;-65
2021/12/27 07:14:31;;;;;;;23.15;10.27;;;;;;;0.38;85.97;99108.94;5023704;28;20533;-71
2021/12/27 07:16:57;;;;;;;21.92;10.57;;;;;;;0.39;85.72;99110.59;5026402;28;20045;-66
2021/12/27 07:19:22;;;;;;;21.58;10.45;;;;;;;0.42;85.72;99113.88;5025833;28;20029;-68
2021/12/27 07:21:47;;;;;;;20.92;9.98;;;;;;;0.49;85.67;99122.19;5024116;28;20080;-70
2021/12/27 07:24:13;;;;;;;25.40;9.73;;;;;;;0.46;85.35;99114.59;5026933;28;20475;-70
2021/12/27 07:26:38;;;;;;;22.05;10.50;;;;;;;0.43;85.96;99115.56;5031569;28;20173;-70
2021/12/27 07:29:04;;;;;;;21.55;9.60;;;;;;;0.42;86.25;99115.63;5022693;28;20108;-68
2021/12/27 07:31:29;;;;;;;26.05;10.00;;;;;;;0.40;86.09;99118.25;5026364;28;20501;-70
2021/12/27 07:33:54;;;;;;;24.02;10.00;;;;;;;0.41;86.52;99112.22;5021389;28;20101;-67
2021/12/27 07:36:22;;;;;;;24.50;10.55;;;;;;;0.46;86.71;99117.16;5024281;28;20093;-69
2021/12/27 07:38:47;;;;;;;27.38;10.80;;;;;;;0.43;86.84;99112.13;5025865;28;20651;-65
2021/12/27 07:41:13;;;;;;;19.67;9.60;;;;;;;0.47;86.84;99108.50;5026243;28;20630;-67
2021/12/27 07:43:38;;;;;;;21.02;10.40;;;;;;;0.68;90.43;99104.13;5026538;28;20144;-68
2021/12/27 07:46:03;;;;;;;25.58;11.13;;;;;;;0.94;89.78;99106.34;5025114;28;20053;-66
2021/12/27 07:48:29;;;;;;;33.60;11.90;;;;;;;0.99;87.74;99103.53;5026473;28;20097;-67
2021/12/27 07:50:54;;;;;;;25.23;12.43;;;;;;;1.01;86.87;99100.91;5024157;28;20061;-70
2021/12/27 07:53:20;;;;;;;24.60;11.60;;;;;;;0.98;86.25;99107.03;5023473;28;20064;-68
2021/12/27 07:55:45;;;;;;;24.85;10.75;;;;;;;0.96;86.60;99101.09;5025311;28;20056;-67
2021/12/27 07:58:11;;;;;;;27.17;11.82;;;;;;;0.84;86.92;99093.94;5025515;28;20041;-67
2021/12/27 08:00:36;;;;;;;26.83;12.05;;;;;;;0.76;87.13;99093.47;5024171;28;20073;-68
2021/12/27 08:03:02;;;;;;;27.13;12.52;;;;;;;0.75;87.52;99102.97;5025111;28;20062;-67
2021/12/27 08:05:27;;;;;;;37.42;14.23;;;;;;;0.79;87.18;99101.91;5025368;28;20030;-67
2021/12/27 08:07:53;;;;;;;35.13;15.40;;;;;;;0.84;87.27;99101.69;5024716;28;20037;-68
2021/12/27 08:10:18;;;;;;;33.05;15.20;;;;;;;0.86;87.53;99099.88;5025426;28;20037;-67
2021/12/27 08:12:44;;;;;;;31.63;14.05;;;;;;;0.88;87.81;99106.63;5024893;28;20112;-68
2021/12/27 08:15:10;;;;;;;39.10;15.35;;;;;;;0.92;87.96;99104.75;5025982;28;20466;-68
2021/12/27 08:17:37;;;;;;;31.20;14.73;;;;;;;0.94;87.81;99101.19;5025237;28;20034;-66
2021/12/27 08:20:03;;;;;;;30.75;12.57;;;;;;;0.97;87.74;99095.06;5020886;28;20034;-66
2021/12/27 08:22:28;;;;;;;30.73;12.65;;;;;;;0.98;88.14;99093.31;5024008;28;20060;-67
2021/12/27 08:24:55;;;;;;;31.10;12.52;;;;;;;0.99;88.24;99089.81;5024124;28;20049;-67
2021/12/27 08:27:22;;;;;;;24.85;12.50;;;;;;;1.03;88.50;99083.59;5022639;28;20021;-66
2021/12/27 08:29:48;;;;;;;31.10;13.43;;;;;;;1.03;88.76;99079.25;5024573;28;20092;-68
2021/12/27 08:32:13;;;;;;;29.05;12.90;;;;;;;1.05;88.22;99086.94;5006201;28;20037;-65
2021/12/27 08:34:39;;;;;;;32.58;13.85;;;;;;;1.04;88.29;99083.53;5026120;28;20506;-66
2021/12/27 08:37:05;;;;;;;27.73;13.68;;;;;;;0.99;88.56;99090.66;5024509;28;20516;-67
2021/12/27 08:39:31;;;;;;;32.95;13.10;;;;;;;1.00;88.50;99096.63;5026231;28;20053;-67
2021/12/27 08:41:56;;;;;;;31.08;13.68;;;;;;;1.01;88.58;99093.16;5024242;28;20062;-66
2021/12/27 08:44:22;;;;;;;31.48;13.23;;;;;;;1.05;88.37;99085.19;5026025;28;20625;-63
2021/12/27 08:46:48;;;;;;;34.22;14.18;;;;;;;1.09;88.69;99089.31;5018852;28;20113;-67
2021/12/27 08:49:13;;;;;;;25.58;11.98;;;;;;;1.14;88.11;99083.91;5026660;28;20060;-65
2021/12/27 08:51:38;;;;;;;26.77;12.25;;;;;;;1.17;87.95;99091.53;5025073;28;20097;-66
2021/12/27 08:54:04;;;;;;;29.30;13.23;;;;;;;1.21;88.39;99090.47;5020508;28;20018;-67
2021/12/27 08:56:30;;;;;;;24.13;12.45;;;;;;;1.27;88.06;99097.09;5024249;28;20463;-68
2021/12/27 08:58:56;;;;;;;31.83;11.68;;;;;;;1.28;88.05;99093.59;5025618;28;20033;-70
2021/12/27 09:01:21;;;;;;;24.35;11.15;;;;;;;1.33;87.73;99089.84;5025317;28;20030;-67
2021/12/27 09:03:47;;;;;;;27.77;12.10;;;;;;;1.37;87.30;99094.00;5024890;28;20026;-67
2021/12/27 09:06:14;;;;;;;39.15;12.95;;;;;;;1.42;87.44;99101.50;5024490;28;20112;-67
2021/12/27 09:08:39;;;;;;;31.65;13.23;;;;;;;1.53;87.26;99103.56;5023639;28;20496;-68
2021/12/27 09:11:05;;;;;;;28.55;12.70;;;;;;;1.58;87.18;99097.25;5024957;28;20112;-69
2021/12/27 09:13:32;;;;;;;27.63;12.13;;;;;;;1.66;87.14;99097.69;5015838;28;20499;-67
2021/12/27 09:16:02;;;;;;;27.63;12.90;;;;;;;1.79;86.73;99095.34;5021189;28;20033;-66
2021/12/27 09:18:29;;;;;;;27.52;11.45;;;;;;;1.88;86.33;99088.88;5026144;28;20187;-68
2021/12/27 09:20:54;;;;;;;24.75;11.13;;;;;;;1.94;86.35;99089.41;5023284;28;20045;-70
2021/12/27 09:23:20;;;;;;;26.73;12.30;;;;;;;2.06;85.53;99087.94;5020582;28;20122;-67
2021/12/27 09:25:47;;;;;;;24.10;11.80;;;;;;;2.16;86.26;99083.13;5024152;28;20451;-68
2021/12/27 09:28:13;;;;;;;25.67;11.18;;;;;;;2.24;85.43;99091.31;5022251;28;20045;-67
2021/12/27 09:30:38;;;;;;;25.88;12.75;;;;;;;2.30;84.93;99082.41;5024160;28;20022;-68
2021/12/27 09:33:04;;;;;;;22.73;11.50;;;;;;;2.33;84.70;99087.41;5025521;28;20032;-69
2021/12/27 09:35:30;;;;;;;23.58;11.35;;;;;;;2.28;84.82;99081.66;5022755;28;20056;-70
2021/12/27 09:37:55;;;;;;;33.60;13.05;;;;;;;2.28;84.83;99082.50;5025648;28;20040;-67
2021/12/27 09:40:21;;;;;;;26.88;12.27;;;;;;;2.26;85.16;99080.88;5025434;28;20046;-68
2021/12/27 09:42:47;;;;;;;34.60;13.55;;;;;;;2.29;84.93;99083.31;5021817;28;20091;-68
2021/12/27 09:45:12;;;;;;;26.05;12.82;;;;;;;2.23;85.67;99083.66;5024324;28;20021;-70
2021/12/27 09:47:38;;;;;;;28.30;12.63;;;;;;;2.22;84.90;99077.63;5008653;28;20033;-70
2021/12/27 09:50:06;;;;;;;30.65;13.43;;;;;;;2.22;85.88;99077.63;5023721;28;20059;-67
2021/12/27 09:52:32;;;;;;;26.67;11.98;;;;;;;2.25;85.94;99076.66;5020952;28;20110;-69
2021/12/27 09:54:59;;;;;;;27.17;12.02;;;;;;;2.25;85.79;99069.72;5025787;28;20068;-69
2021/12/27 09:57:24;;;;;;;28.30;12.65;;;;;;;2.31;86.19;99069.41;5026440;28;20097;-71
2021/12/27 09:59:50;;;;;;;30.55;12.65;;;;;;;2.30;85.73;99061.72;5026333;28;20109;-70
2021/12/27 10:02:15;;;;;;;31.60;12.98;;;;;;;2.31;86.49;99045.28;5028498;28;20387;-72
2021/12/27 10:04:44;;;;;;;25.55;12.20;;;;;;;2.37;86.38;99050.13;5018076;28;20652;-66
2021/12/27 10:07:09;;;;;;;36.03;13.65;;;;;;;2.30;86.42;99043.59;5028548;28;20037;-69
2021/12/27 10:09:37;;;;;;;27.63;11.57;;;;;;;2.28;86.04;99056.63;5027954;28;20079;-69
2021/12/27 10:12:02;;;;;;;27.35;11.80;;;;;;;2.33;86.57;99043.44;5013936;28;20112;-66
2021/12/27 10:14:28;;;;;;;30.58;13.15;;;;;;;2.30;86.92;99046.19;5016865;28;20704;-68
2021/12/27 10:17:10;;;;;;;28.65;13.05;;;;;;;2.40;86.52;99048.22;5019777;28;20112;-68
2021/12/27 10:19:36;;;;;;;26.73;12.35;;;;;;;2.40;86.15;99043.03;5017835;28;20121;-69
2021/12/27 10:22:09;;;;;;;26.15;13.07;;;;;;;2.39;86.20;99041.38;5014874;28;20136;-68
2021/12/27 10:24:34;;;;;;;27.42;11.93;;;;;;;2.42;86.19;99040.38;5024690;28;20202;-65
2021/12/27 10:27:01;;;;;;;31.63;13.10;;;;;;;2.49;86.45;99046.06;5028795;28;20714;-68
2021/12/27 10:29:32;;;;;;;24.23;12.18;;;;;;;2.55;87.12;99043.97;5012629;28;20360;-70
2021/12/27 10:32:04;;;;;;;27.33;12.15;;;;;;;2.60;86.17;99041.97;5023607;28;20137;-69
2021/12/27 10:34:43;;;;;;;24.05;11.88;;;;;;;2.65;85.88;99036.56;5016760;28;20038;-67
2021/12/27 10:37:12;;;;;;;;;;;;;;;2.69;86.08;99045.81;5016268;28;20057;-70
2021/12/27 10:39:45;;;;;;;27.43;12.20;;;;;;;2.72;85.51;99045.66;5016723;28;20279;-67
2021/12/27 10:42:13;;;;;;;25.05;11.77;;;;;;;2.76;85.47;99035.97;5019087;28;20028;-70
2021/12/27 10:44:39;;;;;;;;;;;;;;;2.87;85.77;99037.03;5020503;28;20071;-68
2021/12/27 10:47:29;;;;;;;30.20;12.90;;;;;;;3.00;84.72;99023.38;5019710;28;19921;-69
2021/12/27 10:50:02;;;;;;;25.88;12.52;;;;;;;3.18;84.55;99026.69;5017602;28;20105;-70
2021/12/27 10:52:58;;;;;;;27.42;12.88;;;;;;;3.26;83.87;99025.31;5019912;28;20037;-71
2021/12/27 10:55:38;;;;;;;39.28;15.45;;;;;;;3.34;83.63;99022.31;5038327;28;20105;-67
2021/12/27 10:58:12;;;;;;;22.73;12.30;;;;;;;3.36;83.16;99023.06;5017950;28;20041;-68
2021/12/27 11:00:39;;;;;;;32.65;14.38;;;;;;;3.30;83.57;99015.63;5020459;28;20582;-72
2021/12/27 11:03:05;;;;;;;30.88;13.70;;;;;;;3.41;83.96;99021.03;5020776;28;20116;-70
2021/12/27 11:05:34;;;;;;;30.90;13.55;;;;;;;3.32;83.47;99019.81;5020661;28;20567;-66
2021/12/27 11:08:04;;;;;;;29.27;13.13;;;;;;;3.42;83.57;99016.69;5025093;28;20041;-68
2021/12/27 11:10:30;;;;;;;;;;;;;;;3.45;83.31;99011.31;5018398;28;20042;-72
2021/12/27 11:12:59;;;;;;;31.85;13.90;;;;;;;3.50;83.08;99023.09;5023475;28;19917;-72
2021/12/27 11:15:26;;;;;;;26.27;13.38;;;;;;;3.45;82.95;99012.19;5022062;28;20036;-69
2021/12/27 11:17:52;;;;;;;29.73;13.60;;;;;;;3.48;83.23;99006.78;5019184;28;20347;-68
2021/12/27 11:20:17;;;;;;;33.67;14.77;;;;;;;3.50;83.21;99014.50;5019075;28;20542;-68
2021/12/27 11:22:44;;;;;;;28.38;12.75;;;;;;;3.48;83.12;99008.56;5023421;28;20044;-70
2021/12/27 11:25:40;;;;;;;28.25;12.43;;;;;;;3.44;83.58;99005.31;5019359;28;20468;-72
2021/12/27 11:28:23;;;;;;;25.40;12.45;;;;;;;3.39;83.56;99004.75;5011244;28;20471;-65